createdAt,value
2018-01-26T00:00:50.247Z,1.70
2018-01-26T00:03:23.261Z,1.70
2018-01-26T00:05:57.322Z,1.60
2018-01-26T00:08:33.856Z,1.50
2018-01-26T00:11:03.494Z,1.50
2018-01-26T00:13:35.683Z,1.50
2018-01-26T00:16:08.361Z,1.50
2018-01-26T00:18:38.823Z,1.40
2018-01-26T00:21:08.266Z,1.30
2018-01-26T00:23:38.016Z,1.30
2018-01-26T00:26:07.139Z,1.30
2018-01-26T00:28:35.552Z,1.40
2018-01-26T00:31:05.481Z,1.40
2018-01-26T00:33:35.991Z,1.50
2018-01-26T00:36:04.467Z,1.70
2018-01-26T00:38:32.768Z,1.70
2018-01-26T00:41:02.643Z,1.70
2018-01-26T00:43:32.903Z,1.60
2018-01-26T00:46:01.571Z,1.40
2018-01-26T00:48:35.116Z,1.40
2018-01-26T00:51:06.390Z,1.30
2018-01-26T00:53:35.191Z,1.20
2018-01-26T00:56:06.176Z,1.10
2018-01-26T00:58:35.369Z,1.00
2018-01-26T01:01:04.227Z,1.00
2018-01-26T01:03:33.885Z,0.90
2018-01-26T01:06:05.754Z,0.80
2018-01-26T01:08:35.377Z,0.80
2018-01-26T01:11:03.757Z,0.80
2018-01-26T01:13:55.443Z,0.80
2018-01-26T01:16:27.311Z,0.70
2018-01-26T01:18:57.613Z,0.70
2018-01-26T01:21:27.337Z,0.60
2018-01-26T01:23:56.845Z,0.60
2018-01-26T01:26:25.293Z,0.60
2018-01-26T01:28:53.814Z,0.60
2018-01-26T01:31:24.078Z,0.60
2018-01-26T01:33:57.586Z,0.50
2018-01-26T01:36:26.797Z,0.50
2018-01-26T01:38:56.503Z,0.50
2018-01-26T01:41:24.772Z,0.50
2018-01-26T01:43:55.517Z,0.50
2018-01-26T01:46:24.952Z,0.40
2018-01-26T01:49:06.042Z,0.40
2018-01-26T01:51:37.699Z,0.40
2018-01-26T01:54:07.152Z,0.40
2018-01-26T01:56:40.856Z,0.30
2018-01-26T01:59:32.538Z,0.40
2018-01-26T02:02:04.317Z,0.40
2018-01-26T02:04:32.861Z,0.50
2018-01-26T02:07:02.449Z,0.50
2018-01-26T02:09:31.524Z,0.50
2018-01-26T02:12:00.164Z,0.40
2018-01-26T02:14:30.228Z,0.50
2018-01-26T02:16:58.503Z,0.40
2018-01-26T02:19:27.908Z,0.30
2018-01-26T02:21:56.186Z,0.30
2018-01-26T02:24:24.944Z,0.40
2018-01-26T02:26:53.822Z,0.40
2018-01-26T02:29:23.524Z,0.40
2018-01-26T02:31:51.803Z,0.30
2018-01-26T02:34:21.482Z,0.30
2018-01-26T02:36:53.134Z,0.30
2018-01-26T02:39:27.087Z,0.30
2018-01-26T02:41:57.013Z,0.20
2018-01-26T02:44:29.813Z,0.20
2018-01-26T02:46:58.993Z,0.20
2018-01-26T02:49:29.457Z,0.20
2018-01-26T02:52:02.004Z,0.20
2018-01-26T02:54:30.288Z,0.10
2018-01-26T02:57:00.562Z,0.10
2018-01-26T02:59:35.125Z,0.00
2018-01-26T03:02:05.544Z,0.00
2018-01-26T03:04:33.847Z,0.00
2018-01-26T03:07:02.108Z,0.00
2018-01-26T03:09:34.664Z,0.00
2018-01-26T03:12:02.956Z,0.00
2018-01-26T03:14:34.196Z,-0.10
2018-01-26T03:17:05.679Z,-0.10
2018-01-26T03:19:34.005Z,-0.10
2018-01-26T03:22:02.561Z,-0.10
2018-01-26T03:24:33.525Z,-0.10
2018-01-26T03:27:01.829Z,-0.20
2018-01-26T03:29:31.457Z,-0.10
2018-01-26T03:32:01.708Z,-0.10
2018-01-26T03:34:32.579Z,0.00
2018-01-26T03:37:00.924Z,0.00
2018-01-26T03:39:29.678Z,0.10
2018-01-26T03:41:59.886Z,0.20
2018-01-26T03:44:36.331Z,0.30
2018-01-26T03:47:04.629Z,0.30
2018-01-26T03:49:37.755Z,0.30
2018-01-26T03:52:06.088Z,0.30
2018-01-26T03:54:36.619Z,0.50
2018-01-26T03:57:07.465Z,0.60
2018-01-26T03:59:45.737Z,0.80
2018-01-26T04:02:14.386Z,0.90
2018-01-26T04:04:48.056Z,1.10
2018-01-26T04:07:16.341Z,1.00
2018-01-26T04:09:45.080Z,1.20
2018-01-26T04:12:17.013Z,1.30
2018-01-26T04:15:13.835Z,1.30
2018-01-26T04:17:43.215Z,1.30
2018-01-26T04:20:12.072Z,1.30
2018-01-26T04:22:47.260Z,1.40
2018-01-26T04:25:15.627Z,1.40
2018-01-26T04:27:45.972Z,1.50
2018-01-26T04:30:14.427Z,1.50
2018-01-26T04:32:42.915Z,1.50
2018-01-26T04:35:11.223Z,1.50
2018-01-26T04:37:45.269Z,1.60
2018-01-26T04:40:16.706Z,1.60
2018-01-26T04:42:48.936Z,1.60
2018-01-26T04:45:17.730Z,1.70
2018-01-26T04:47:49.970Z,1.70
2018-01-26T04:50:18.597Z,1.70
2018-01-26T04:52:46.869Z,1.80
2018-01-26T04:55:15.902Z,1.90
2018-01-26T04:57:45.966Z,1.90
2018-01-26T05:00:36.335Z,1.90
2018-01-26T05:03:05.382Z,2.00
2018-01-26T05:05:34.368Z,1.90
2018-01-26T05:08:04.988Z,2.00
2018-01-26T05:10:34.149Z,2.00
2018-01-26T05:13:07.919Z,2.00
2018-01-26T05:15:41.941Z,2.00
2018-01-26T05:18:13.321Z,2.00
2018-01-26T05:20:52.777Z,2.10
2018-01-26T05:23:29.299Z,2.10
2018-01-26T05:26:01.337Z,2.20
2018-01-26T05:28:32.738Z,2.20
2018-01-26T05:31:05.276Z,2.20
2018-01-26T05:33:34.444Z,2.20
2018-01-26T05:36:02.741Z,2.30
2018-01-26T05:38:31.368Z,2.30
2018-01-26T05:41:02.571Z,2.30
2018-01-26T05:43:36.297Z,2.40
2018-01-26T05:46:10.128Z,2.40
2018-01-26T05:48:44.748Z,2.40
2018-01-26T05:51:16.476Z,2.40
2018-01-26T05:53:45.522Z,2.50
2018-01-26T05:56:17.273Z,2.50
2018-01-26T05:58:46.814Z,2.40
2018-01-26T06:01:15.144Z,2.40
2018-01-26T06:03:43.875Z,2.50
2018-01-26T06:06:17.299Z,2.50
2018-01-26T06:08:50.578Z,2.50
2018-01-26T06:11:25.337Z,2.50
2018-01-26T06:13:56.284Z,2.50
2018-01-26T06:16:24.755Z,2.50
2018-01-26T06:18:53.634Z,2.60
2018-01-26T06:21:22.523Z,2.60
2018-01-26T06:23:51.529Z,2.60
2018-01-26T06:26:20.992Z,2.60
2018-01-26T06:28:49.649Z,2.40
2018-01-26T06:31:17.940Z,2.40
2018-01-26T06:33:46.199Z,2.40
2018-01-26T06:36:14.981Z,2.40
2018-01-26T06:38:46.722Z,2.40
2018-01-26T06:41:19.276Z,2.40
2018-01-26T06:43:48.102Z,2.40
2018-01-26T06:46:18.242Z,2.50
2018-01-26T06:48:47.214Z,2.50
2018-01-26T06:51:15.491Z,2.60
2018-01-26T06:53:45.584Z,2.60
2018-01-26T06:56:21.062Z,2.70
2018-01-26T06:58:54.224Z,2.80
2018-01-26T07:01:32.739Z,2.80
2018-01-26T07:04:03.003Z,2.90
2018-01-26T07:06:39.478Z,2.90
2018-01-26T07:09:11.615Z,3.00
2018-01-26T07:11:40.207Z,2.90
2018-01-26T07:14:09.545Z,3.00
2018-01-26T07:16:37.833Z,3.00
2018-01-26T07:19:06.400Z,3.00
2018-01-26T07:21:35.744Z,3.10
2018-01-26T07:24:10.623Z,3.00
2018-01-26T07:26:42.479Z,3.00
2018-01-26T07:29:17.875Z,3.00
2018-01-26T07:32:07.840Z,3.10
2018-01-26T07:34:38.425Z,3.10
2018-01-26T07:37:07.465Z,3.10
2018-01-26T07:39:35.776Z,3.10
2018-01-26T07:42:05.459Z,3.10
2018-01-26T07:44:36.771Z,3.20
2018-01-26T07:47:27.830Z,3.20
2018-01-26T07:49:56.662Z,3.20
2018-01-26T07:52:25.727Z,3.20
2018-01-26T07:54:55.638Z,3.20
2018-01-26T07:57:29.629Z,3.20
2018-01-26T07:59:57.913Z,3.20
2018-01-26T08:02:26.346Z,3.20
2018-01-26T08:04:54.614Z,3.20
2018-01-26T08:07:23.674Z,3.20
2018-01-26T08:09:53.533Z,3.20
2018-01-26T08:12:23.933Z,3.20
2018-01-26T08:14:56.179Z,3.30
2018-01-26T08:17:31.703Z,3.30
2018-01-26T08:20:03.587Z,3.40
2018-01-26T08:22:32.016Z,3.40
2018-01-26T08:25:00.733Z,3.40
2018-01-26T08:27:29.188Z,3.50
2018-01-26T08:29:58.116Z,3.60
2018-01-26T08:32:29.063Z,3.60
2018-01-26T08:35:02.560Z,3.60
2018-01-26T08:37:35.526Z,3.50
2018-01-26T08:40:12.501Z,3.50
2018-01-26T08:42:43.203Z,3.40
2018-01-26T08:45:14.019Z,3.30
2018-01-26T08:47:42.871Z,3.30
2018-01-26T08:50:15.025Z,3.30
2018-01-26T08:52:44.359Z,3.40
2018-01-26T08:55:17.594Z,3.50
2018-01-26T08:57:46.461Z,3.50
2018-01-26T09:00:14.871Z,3.60
2018-01-26T09:02:54.864Z,3.80
2018-01-26T09:05:24.407Z,4.00
2018-01-26T09:07:53.565Z,4.00
2018-01-26T09:10:26.350Z,4.10
2018-01-26T09:12:55.143Z,4.10
2018-01-26T09:15:24.231Z,4.20
2018-01-26T09:18:28.621Z,4.40
2018-01-26T09:20:56.896Z,4.40
2018-01-26T09:23:25.176Z,4.50
2018-01-26T09:25:54.599Z,4.50
2018-01-26T09:28:26.458Z,4.50
2018-01-26T09:30:58.382Z,4.40
2018-01-26T09:33:32.164Z,4.40
2018-01-26T09:36:01.005Z,4.50
2018-01-26T09:38:29.332Z,4.50
2018-01-26T09:40:57.639Z,4.50
2018-01-26T09:43:25.986Z,4.40
2018-01-26T09:45:55.547Z,4.40
2018-01-26T09:48:30.701Z,4.50
2018-01-26T09:51:02.442Z,4.50
2018-01-26T09:53:32.532Z,4.50
2018-01-26T09:56:05.440Z,4.40
2018-01-26T09:58:39.607Z,4.60
2018-01-26T10:01:09.591Z,4.60
2018-01-26T10:03:40.531Z,4.60
2018-01-26T10:06:09.815Z,4.60
2018-01-26T10:08:38.602Z,4.60
2018-01-26T10:11:06.916Z,4.60
2018-01-26T10:13:36.900Z,4.70
2018-01-26T10:16:09.592Z,4.90
2018-01-26T10:18:42.058Z,4.90
2018-01-26T10:21:13.268Z,5.00
2018-01-26T10:23:45.413Z,5.10
2018-01-26T10:26:13.700Z,5.30
2018-01-26T10:28:41.989Z,5.50
2018-01-26T10:31:10.295Z,5.50
2018-01-26T10:33:51.444Z,5.70
2018-01-26T10:36:19.732Z,5.80
2018-01-26T10:38:48.263Z,5.90
2018-01-26T10:41:18.321Z,5.90
2018-01-26T10:43:46.603Z,5.90
2018-01-26T10:46:15.633Z,5.90
2018-01-26T10:48:44.798Z,6.20
2018-01-26T10:51:13.099Z,6.20
2018-01-26T10:53:41.643Z,6.30
2018-01-26T10:56:13.198Z,6.20
2018-01-26T10:58:41.905Z,6.10
2018-01-26T11:01:11.425Z,6.00
2018-01-26T11:03:40.875Z,6.00
2018-01-26T11:06:09.154Z,6.10
2018-01-26T11:08:37.741Z,6.00
2018-01-26T11:11:09.972Z,6.00
2018-01-26T11:13:43.029Z,6.00
2018-01-26T11:16:16.836Z,6.00
2018-01-26T11:18:48.746Z,5.90
2018-01-26T11:21:25.957Z,5.90
2018-01-26T11:23:56.593Z,5.90
2018-01-26T11:26:26.334Z,6.00
2018-01-26T11:28:54.884Z,6.00
2018-01-26T11:31:24.005Z,6.00
2018-01-26T11:33:52.302Z,6.20
2018-01-26T11:36:21.550Z,6.40
2018-01-26T11:38:50.118Z,6.40
2018-01-26T11:41:27.777Z,6.50
2018-01-26T11:43:58.737Z,6.50
2018-01-26T11:46:27.230Z,6.80
2018-01-26T11:49:00.194Z,7.00
2018-01-26T11:51:30.514Z,7.00
2018-01-26T11:54:00.373Z,6.90
2018-01-26T11:56:28.667Z,6.80
2018-01-26T11:58:58.373Z,6.80
2018-01-26T12:01:30.153Z,7.00
2018-01-26T12:04:01.708Z,7.10
2018-01-26T12:06:31.616Z,7.00
2018-01-26T12:09:00.625Z,7.00
2018-01-26T12:11:28.936Z,6.90
2018-01-26T12:13:57.596Z,7.10
2018-01-26T12:16:27.096Z,7.40
2018-01-26T12:18:58.949Z,7.50
2018-01-26T12:21:33.590Z,7.50
2018-01-26T12:24:04.785Z,7.40
2018-01-26T12:26:36.370Z,7.40
2018-01-26T12:29:04.876Z,7.30
2018-01-26T12:31:33.982Z,7.10
2018-01-26T12:34:02.280Z,7.10
2018-01-26T12:36:31.099Z,7.10
2018-01-26T12:39:00.025Z,6.90
2018-01-26T12:41:28.683Z,6.80
2018-01-26T12:43:57.670Z,6.80
2018-01-26T12:46:26.574Z,6.80
2018-01-26T12:48:55.840Z,7.00
2018-01-26T12:51:24.488Z,7.10
2018-01-26T12:53:56.991Z,7.20
2018-01-26T12:56:30.550Z,7.00
2018-01-26T12:59:06.296Z,7.10
2018-01-26T13:01:35.352Z,7.10
2018-01-26T13:04:05.451Z,7.20
2018-01-26T13:06:39.617Z,7.30
2018-01-26T13:09:10.245Z,7.30
2018-01-26T13:11:38.956Z,7.50
2018-01-26T13:14:08.651Z,7.70
2018-01-26T13:16:38.118Z,7.70
2018-01-26T13:19:08.901Z,7.80
2018-01-26T13:21:58.640Z,7.80
2018-01-26T13:24:26.956Z,7.70
2018-01-26T13:26:56.354Z,7.30
2018-01-26T13:29:25.643Z,7.30
2018-01-26T13:31:55.449Z,7.30
2018-01-26T13:34:26.504Z,7.40
2018-01-26T13:37:00.664Z,7.60
2018-01-26T13:39:29.992Z,7.70
2018-01-26T13:41:58.492Z,7.70
2018-01-26T13:44:26.787Z,7.60
2018-01-26T13:46:55.746Z,7.50
2018-01-26T13:49:25.654Z,7.50
2018-01-26T13:51:58.143Z,7.50
2018-01-26T13:54:30.572Z,7.50
2018-01-26T13:57:09.640Z,7.30
2018-01-26T13:59:44.732Z,7.40
2018-01-26T14:02:19.301Z,7.50
2018-01-26T14:04:51.631Z,7.50
2018-01-26T14:07:25.826Z,7.40
2018-01-26T14:09:58.287Z,7.30
2018-01-26T14:12:27.478Z,7.30
2018-01-26T14:14:56.143Z,7.30
2018-01-26T14:17:24.459Z,7.50
2018-01-26T14:19:53.725Z,7.60
2018-01-26T14:22:23.356Z,7.60
2018-01-26T14:24:52.268Z,7.70
2018-01-26T14:27:23.712Z,7.80
2018-01-26T14:29:52.616Z,7.80
2018-01-26T14:32:21.542Z,7.80
2018-01-26T14:34:52.387Z,7.80
2018-01-26T14:37:20.675Z,7.80
2018-01-26T14:39:52.732Z,7.90
2018-01-26T14:42:24.033Z,8.00
2018-01-26T14:44:52.399Z,8.00
2018-01-26T14:47:21.747Z,7.90
2018-01-26T14:49:50.928Z,7.80
2018-01-26T14:52:19.209Z,7.80
2018-01-26T14:54:50.232Z,7.60
2018-01-26T14:57:21.750Z,7.60
2018-01-26T14:59:50.486Z,7.60
2018-01-26T15:02:19.273Z,7.60
2018-01-26T15:04:47.574Z,7.60
2018-01-26T15:07:16.553Z,7.60
2018-01-26T15:09:45.802Z,7.50
2018-01-26T15:12:14.934Z,7.50
2018-01-26T15:14:43.782Z,7.50
2018-01-26T15:17:13.613Z,7.40
2018-01-26T15:19:42.787Z,7.30
2018-01-26T15:22:11.421Z,7.30
2018-01-26T15:24:43.446Z,7.20
2018-01-26T15:27:19.489Z,7.10
2018-01-26T15:29:54.180Z,7.10
2018-01-26T15:32:27.059Z,7.10
2018-01-26T15:35:01.965Z,7.20
2018-01-26T15:37:31.884Z,7.20
2018-01-26T15:40:11.145Z,7.10
2018-01-26T15:42:44.090Z,7.10
2018-01-26T15:45:20.736Z,7.20
2018-01-26T15:47:52.749Z,7.20
2018-01-26T15:50:27.046Z,7.10
2018-01-26T15:53:20.290Z,7.10
2018-01-26T15:55:49.421Z,7.00
2018-01-26T15:58:19.628Z,7.00
2018-01-26T16:00:48.489Z,7.00
2018-01-26T16:03:21.472Z,7.10
2018-01-26T16:05:55.962Z,7.20
2018-01-26T16:08:27.681Z,7.20
2018-01-26T16:11:01.539Z,7.10
2018-01-26T16:13:36.464Z,7.10
2018-01-26T16:16:06.957Z,7.10
2018-01-26T16:18:37.414Z,7.00
2018-01-26T16:21:05.772Z,7.00
2018-01-26T16:23:34.512Z,7.00
2018-01-26T16:26:02.778Z,7.00
2018-01-26T16:28:36.880Z,6.90
2018-01-26T16:31:09.645Z,6.80
2018-01-26T16:33:38.826Z,6.90
2018-01-26T16:36:07.430Z,6.80
2018-01-26T16:38:35.734Z,6.90
2018-01-26T16:41:06.333Z,6.80
2018-01-26T16:43:36.148Z,6.80
2018-01-26T16:46:04.968Z,6.80
2018-01-26T16:48:34.031Z,6.70
2018-01-26T16:51:04.288Z,6.70
2018-01-26T16:53:33.127Z,6.70
2018-01-26T16:56:01.665Z,6.60
2018-01-26T16:58:31.953Z,6.60
2018-01-26T17:01:03.742Z,6.70
2018-01-26T17:03:33.942Z,6.70
2018-01-26T17:06:04.474Z,6.60
2018-01-26T17:08:34.045Z,6.60
2018-01-26T17:11:02.961Z,6.50
2018-01-26T17:13:31.837Z,6.50
2018-01-26T17:16:02.570Z,6.60
2018-01-26T17:18:35.681Z,6.60
2018-01-26T17:21:06.170Z,6.50
2018-01-26T17:23:38.432Z,6.50
2018-01-26T17:26:06.717Z,6.50
2018-01-26T17:28:36.173Z,6.50
2018-01-26T17:31:04.455Z,6.40
2018-01-26T17:33:34.048Z,6.40
2018-01-26T17:36:04.506Z,6.20
2018-01-26T17:38:57.601Z,6.30
2018-01-26T17:41:25.970Z,6.20
2018-01-26T17:44:02.519Z,6.20
2018-01-26T17:46:31.836Z,6.20
2018-01-26T17:49:00.350Z,6.20
2018-01-26T17:51:35.327Z,6.20
2018-01-26T17:54:08.287Z,6.20
2018-01-26T17:56:39.674Z,6.20
2018-01-26T17:59:11.559Z,6.20
2018-01-26T18:01:43.943Z,6.10
2018-01-26T18:04:15.075Z,6.10
2018-01-26T18:06:43.896Z,6.20
2018-01-26T18:09:33.136Z,6.20
2018-01-26T18:12:02.596Z,6.20
2018-01-26T18:14:35.399Z,6.10
2018-01-26T18:17:05.966Z,6.10
2018-01-26T18:19:35.293Z,6.10
2018-01-26T18:22:06.884Z,6.10
2018-01-26T18:24:35.821Z,6.10
2018-01-26T18:27:05.191Z,6.10
2018-01-26T18:29:33.502Z,6.00
2018-01-26T18:32:03.215Z,5.90
2018-01-26T18:34:37.092Z,5.90
2018-01-26T18:37:11.418Z,5.90
2018-01-26T18:40:02.154Z,5.90
2018-01-26T18:42:31.211Z,5.90
2018-01-26T18:45:00.475Z,5.80
2018-01-26T18:47:29.492Z,5.90
2018-01-26T18:50:05.287Z,5.90
2018-01-26T18:52:37.076Z,5.90
2018-01-26T18:55:10.670Z,5.80
2018-01-26T18:57:45.317Z,5.80
2018-01-26T19:00:20.234Z,5.80
2018-01-26T19:02:49.850Z,5.80
2018-01-26T19:05:27.447Z,5.80
2018-01-26T19:07:59.569Z,5.80
2018-01-26T19:10:34.004Z,5.80
2018-01-26T19:13:07.361Z,5.70
2018-01-26T19:15:41.860Z,5.60
2018-01-26T19:18:17.673Z,5.60
2018-01-26T19:20:51.967Z,5.60
2018-01-26T19:23:24.299Z,5.50
2018-01-26T19:25:59.099Z,5.50
2018-01-26T19:28:32.938Z,5.60
2018-01-26T19:31:03.064Z,5.60
2018-01-26T19:33:31.736Z,5.60
2018-01-26T19:36:00.026Z,5.60
2018-01-26T19:38:30.373Z,5.60
2018-01-26T19:40:59.543Z,5.60
2018-01-26T19:43:32.897Z,5.50
2018-01-26T19:46:03.900Z,5.50
2018-01-26T19:48:36.094Z,5.50
2018-01-26T19:51:07.437Z,5.50
2018-01-26T19:53:36.504Z,5.40
2018-01-26T19:56:05.448Z,5.40
2018-01-26T19:58:35.212Z,5.40
2018-01-26T20:01:04.293Z,5.40
2018-01-26T20:03:33.127Z,5.40
2018-01-26T20:06:24.330Z,5.40
2018-01-26T20:08:59.185Z,5.50
2018-01-26T20:14:48.005Z,5.50
2018-01-26T20:17:19.442Z,5.50
2018-01-26T20:19:57.029Z,5.50
2018-01-26T20:22:31.301Z,5.50
2018-01-26T20:25:17.233Z,5.50
2018-01-26T20:27:46.199Z,5.40
2018-01-26T20:30:16.198Z,5.40
2018-01-26T20:32:46.268Z,5.40
2018-01-26T20:35:21.408Z,5.40
2018-01-26T20:37:55.198Z,5.40
2018-01-26T20:40:28.046Z,5.40
2018-01-26T20:43:03.908Z,5.40
2018-01-26T20:45:37.942Z,5.40
2018-01-26T20:48:11.817Z,5.40
2018-01-26T20:50:47.055Z,5.40
2018-01-26T20:53:19.094Z,5.30
2018-01-26T20:55:53.305Z,5.40
2018-01-26T20:58:25.977Z,5.30
2018-01-26T21:01:01.945Z,5.40
2018-01-26T21:03:36.290Z,5.40
2018-01-26T21:06:09.650Z,5.40
2018-01-26T21:08:43.499Z,5.40
2018-01-26T21:11:12.242Z,5.40
2018-01-26T21:13:40.814Z,5.40
2018-01-26T21:16:10.208Z,5.40
2018-01-26T21:18:39.359Z,5.40
2018-01-26T21:21:08.024Z,5.40
2018-01-26T21:23:37.330Z,5.40
2018-01-26T21:26:10.540Z,5.30
2018-01-26T21:28:45.993Z,5.30
2018-01-26T21:31:21.685Z,5.30
2018-01-26T21:33:58.479Z,5.30
2018-01-26T21:36:32.846Z,5.30
2018-01-26T21:39:03.103Z,5.30
2018-01-26T21:41:32.633Z,5.30
2018-01-26T21:44:10.876Z,5.30
2018-01-26T21:46:44.944Z,5.30
2018-01-26T21:49:14.249Z,5.20
2018-01-26T21:51:45.819Z,5.20
2018-01-26T21:54:14.137Z,5.20
2018-01-26T21:56:42.434Z,5.20
2018-01-26T21:59:10.726Z,5.20
2018-01-26T22:01:40.703Z,5.20
2018-01-26T22:04:12.813Z,5.20
2018-01-26T22:06:50.816Z,5.20
2018-01-26T22:09:22.163Z,5.20
2018-01-26T22:11:55.964Z,5.20
2018-01-26T22:14:28.891Z,5.20
2018-01-26T22:17:01.433Z,5.10
2018-01-26T22:19:37.113Z,5.10
2018-01-26T22:22:11.539Z,5.20
2018-01-26T22:24:45.009Z,5.20
2018-01-26T22:27:18.995Z,5.10
2018-01-26T22:29:49.586Z,5.20
2018-01-26T22:32:19.471Z,5.20
2018-01-26T22:34:52.988Z,5.20
2018-01-26T22:37:25.073Z,5.20
2018-01-26T22:39:57.418Z,5.20
2018-01-26T22:42:25.720Z,5.20
2018-01-26T22:44:54.332Z,5.20
2018-01-26T22:47:23.987Z,5.20
2018-01-26T22:49:52.602Z,5.20
2018-01-26T22:52:24.220Z,5.20
2018-01-26T22:54:55.446Z,5.20
2018-01-26T22:57:48.511Z,5.20
2018-01-26T23:00:17.641Z,5.20
2018-01-26T23:02:45.933Z,5.20
2018-01-26T23:05:20.515Z,5.20
2018-01-26T23:07:55.344Z,5.10
2018-01-26T23:10:27.584Z,5.10
2018-01-26T23:13:01.405Z,5.10
2018-01-26T23:15:31.881Z,5.10
2018-01-26T23:18:15.677Z,5.10
2018-01-26T23:23:35.439Z,5.00
2018-01-26T23:26:03.962Z,5.00
2018-01-26T23:28:35.628Z,5.10
2018-01-26T23:31:08.637Z,5.10
2018-01-26T23:33:39.134Z,5.20
2018-01-26T23:36:07.689Z,5.10
2018-01-26T23:38:38.438Z,5.10
2018-01-26T23:41:15.040Z,5.10
2018-01-26T23:44:06.698Z,5.10
2018-01-26T23:46:37.361Z,5.00
2018-01-26T23:49:10.177Z,5.00
2018-01-26T23:51:41.034Z,4.90
2018-01-26T23:54:10.861Z,4.90
2018-01-26T23:56:39.994Z,4.90
2018-01-26T23:59:12.864Z,4.90
